sensor_id;sensor_type;location;lat;lon;timestamp;P1;durP1;ratioP1;P2;durP2;ratioP2
2406;SDS011;37709;53.480;9.688;2023-03-01T00:01:13;7.97;;;4.83;;
2406;SDS011;37709;53.480;9.688;2023-03-01T00:03:42;6.87;;;5.10;;
2406;SDS011;37709;53.480;9.688;2023-03-01T00:06:10;8.63;;;5.57;;
2406;SDS011;37709;53.480;9.688;2023-03-01T00:08:37;6.67;;;5.10;;
2406;SDS011;37709;53.480;9.688;2023-03-01T00:11:13;7.27;;;5.53;;
2406;SDS011;37709;53.480;9.688;2023-03-01T00:13:45;7.37;;;5.13;;
2406;SDS011;37709;53.480;9.688;2023-03-01T00:16:18;7.30;;;5.00;;
2406;SDS011;37709;53.480;9.688;2023-03-01T00:18:47;7.30;;;5.10;;
2406;SDS011;37709;53.480;9.688;2023-03-01T00:21:14;7.07;;;4.93;;
2406;SDS011;37709;53.480;9.688;2023-03-01T00:23:42;7.70;;;4.90;;
2406;SDS011;37709;53.480;9.688;2023-03-01T00:26:11;7.17;;;5.33;;
2406;SDS011;37709;53.480;9.688;2023-03-01T00:28:41;6.30;;;4.17;;
2406;SDS011;37709;53.480;9.688;2023-03-01T00:31:13;5.37;;;4.60;;
2406;SDS011;37709;53.480;9.688;2023-03-01T00:33:43;4.77;;;4.10;;
2406;SDS011;37709;53.480;9.688;2023-03-01T00:36:12;6.20;;;4.37;;
2406;SDS011;37709;53.480;9.688;2023-03-01T00:38:41;6.23;;;4.57;;
2406;SDS011;37709;53.480;9.688;2023-03-01T00:41:12;5.83;;;4.60;;
2406;SDS011;37709;53.480;9.688;2023-03-01T00:43:41;6.57;;;4.17;;
2406;SDS011;37709;53.480;9.688;2023-03-01T00:46:10;5.43;;;4.13;;
2406;SDS011;37709;53.480;9.688;2023-03-01T00:48:40;7.43;;;5.10;;
2406;SDS011;37709;53.480;9.688;2023-03-01T00:51:11;6.63;;;4.70;;
2406;SDS011;37709;53.480;9.688;2023-03-01T00:53:40;7.07;;;4.57;;
2406;SDS011;37709;53.480;9.688;2023-03-01T00:56:09;5.37;;;4.10;;
2406;SDS011;37709;53.480;9.688;2023-03-01T00:58:38;6.00;;;5.03;;
2406;SDS011;37709;53.480;9.688;2023-03-01T01:01:16;6.00;;;4.50;;
2406;SDS011;37709;53.480;9.688;2023-03-01T01:03:47;5.10;;;4.43;;
2406;SDS011;37709;53.480;9.688;2023-03-01T01:06:26;6.07;;;4.37;;
2406;SDS011;37709;53.480;9.688;2023-03-01T01:08:57;4.93;;;4.37;;
2406;SDS011;37709;53.480;9.688;2023-03-01T01:11:26;5.93;;;5.00;;
2406;SDS011;37709;53.480;9.688;2023-03-01T01:13:55;5.83;;;4.50;;
2406;SDS011;37709;53.480;9.688;2023-03-01T01:16:24;9.30;;;4.87;;
2406;SDS011;37709;53.480;9.688;2023-03-01T01:18:52;6.30;;;4.70;;
2406;SDS011;37709;53.480;9.688;2023-03-01T01:21:21;5.47;;;4.60;;
2406;SDS011;37709;53.480;9.688;2023-03-01T01:23:50;7.40;;;4.50;;
2406;SDS011;37709;53.480;9.688;2023-03-01T01:26:18;7.10;;;5.40;;
2406;SDS011;37709;53.480;9.688;2023-03-01T01:28:49;6.40;;;5.00;;
2406;SDS011;37709;53.480;9.688;2023-03-01T01:31:18;5.70;;;4.90;;
2406;SDS011;37709;53.480;9.688;2023-03-01T01:33:45;5.33;;;4.63;;
2406;SDS011;37709;53.480;9.688;2023-03-01T01:36:13;7.23;;;4.90;;
2406;SDS011;37709;53.480;9.688;2023-03-01T01:38:40;6.33;;;4.70;;
2406;SDS011;37709;53.480;9.688;2023-03-01T01:41:09;7.20;;;5.10;;
2406;SDS011;37709;53.480;9.688;2023-03-01T01:43:40;5.27;;;4.73;;
2406;SDS011;37709;53.480;9.688;2023-03-01T01:46:19;5.63;;;4.93;;
2406;SDS011;37709;53.480;9.688;2023-03-01T01:48:57;6.63;;;5.30;;
2406;SDS011;37709;53.480;9.688;2023-03-01T01:51:30;6.10;;;4.97;;
2406;SDS011;37709;53.480;9.688;2023-03-01T01:54:09;6.70;;;4.90;;
2406;SDS011;37709;53.480;9.688;2023-03-01T01:56:48;6.40;;;4.80;;
2406;SDS011;37709;53.480;9.688;2023-03-01T01:59:20;7.97;;;5.57;;
2406;SDS011;37709;53.480;9.688;2023-03-01T02:01:51;6.70;;;5.47;;
2406;SDS011;37709;53.480;9.688;2023-03-01T02:04:20;7.63;;;6.10;;
2406;SDS011;37709;53.480;9.688;2023-03-01T02:06:50;5.50;;;4.93;;
2406;SDS011;37709;53.480;9.688;2023-03-01T02:09:27;6.43;;;5.20;;
2406;SDS011;37709;53.480;9.688;2023-03-01T02:11:56;5.43;;;4.80;;
2406;SDS011;37709;53.480;9.688;2023-03-01T02:14:25;6.07;;;4.60;;
2406;SDS011;37709;53.480;9.688;2023-03-01T02:16:53;6.30;;;5.50;;
2406;SDS011;37709;53.480;9.688;2023-03-01T02:19:31;6.13;;;5.20;;
2406;SDS011;37709;53.480;9.688;2023-03-01T02:27:58;7.47;;;5.90;;
2406;SDS011;37709;53.480;9.688;2023-03-01T02:30:43;5.60;;;4.30;;
2406;SDS011;37709;53.480;9.688;2023-03-01T02:33:37;5.03;;;4.33;;
2406;SDS011;37709;53.480;9.688;2023-03-01T02:36:14;4.73;;;4.20;;
2406;SDS011;37709;53.480;9.688;2023-03-01T02:38:46;6.17;;;4.20;;
2406;SDS011;37709;53.480;9.688;2023-03-01T02:41:15;6.73;;;4.30;;
2406;SDS011;37709;53.480;9.688;2023-03-01T02:43:44;7.63;;;4.50;;
2406;SDS011;37709;53.480;9.688;2023-03-01T02:46:14;6.20;;;4.63;;
2406;SDS011;37709;53.480;9.688;2023-03-01T02:48:45;5.47;;;4.40;;
2406;SDS011;37709;53.480;9.688;2023-03-01T02:56:37;9.63;;;4.70;;
2406;SDS011;37709;53.480;9.688;2023-03-01T02:59:04;8.63;;;4.47;;
2406;SDS011;37709;53.480;9.688;2023-03-01T03:01:33;5.23;;;4.03;;
2406;SDS011;37709;53.480;9.688;2023-03-01T03:04:07;6.03;;;5.33;;
2406;SDS011;37709;53.480;9.688;2023-03-01T03:06:37;5.53;;;4.23;;
2406;SDS011;37709;53.480;9.688;2023-03-01T03:09:04;3.90;;;3.50;;
2406;SDS011;37709;53.480;9.688;2023-03-01T03:11:32;5.00;;;4.50;;
2406;SDS011;37709;53.480;9.688;2023-03-01T03:14:00;6.33;;;4.50;;
2406;SDS011;37709;53.480;9.688;2023-03-01T03:16:28;9.73;;;4.90;;
2406;SDS011;37709;53.480;9.688;2023-03-01T03:18:56;4.20;;;3.80;;
2406;SDS011;37709;53.480;9.688;2023-03-01T03:21:32;7.40;;;4.57;;
2406;SDS011;37709;53.480;9.688;2023-03-01T03:24:00;5.20;;;4.37;;
2406;SDS011;37709;53.480;9.688;2023-03-01T03:26:27;4.47;;;3.77;;
2406;SDS011;37709;53.480;9.688;2023-03-01T03:28:55;6.30;;;4.40;;
2406;SDS011;37709;53.480;9.688;2023-03-01T03:31:23;4.17;;;3.67;;
2406;SDS011;37709;53.480;9.688;2023-03-01T03:33:51;5.80;;;4.70;;
2406;SDS011;37709;53.480;9.688;2023-03-01T03:36:19;5.23;;;4.50;;
2406;SDS011;37709;53.480;9.688;2023-03-01T03:38:48;6.50;;;4.40;;
2406;SDS011;37709;53.480;9.688;2023-03-01T03:41:15;5.20;;;4.20;;
2406;SDS011;37709;53.480;9.688;2023-03-01T03:43:43;5.83;;;4.30;;
2406;SDS011;37709;53.480;9.688;2023-03-01T03:46:11;4.40;;;4.00;;
2406;SDS011;37709;53.480;9.688;2023-03-01T03:48:40;5.20;;;3.77;;
2406;SDS011;37709;53.480;9.688;2023-03-01T03:51:11;4.97;;;4.47;;
2406;SDS011;37709;53.480;9.688;2023-03-01T03:53:44;5.37;;;4.50;;
2406;SDS011;37709;53.480;9.688;2023-03-01T03:56:12;4.83;;;4.37;;
2406;SDS011;37709;53.480;9.688;2023-03-01T03:58:39;5.40;;;4.50;;
2406;SDS011;37709;53.480;9.688;2023-03-01T04:01:06;4.90;;;4.40;;
2406;SDS011;37709;53.480;9.688;2023-03-01T04:03:34;6.30;;;4.70;;
2406;SDS011;37709;53.480;9.688;2023-03-01T04:06:02;5.60;;;4.23;;
2406;SDS011;37709;53.480;9.688;2023-03-01T04:08:31;4.83;;;4.20;;
2406;SDS011;37709;53.480;9.688;2023-03-01T04:11:02;5.07;;;4.53;;
2406;SDS011;37709;53.480;9.688;2023-03-01T04:13:51;5.30;;;4.80;;
2406;SDS011;37709;53.480;9.688;2023-03-01T04:16:23;6.43;;;4.70;;
2406;SDS011;37709;53.480;9.688;2023-03-01T04:18:50;5.10;;;4.17;;
2406;SDS011;37709;53.480;9.688;2023-03-01T04:21:20;6.83;;;4.00;;
2406;SDS011;37709;53.480;9.688;2023-03-01T04:23:47;6.53;;;5.07;;
2406;SDS011;37709;53.480;9.688;2023-03-01T04:26:15;5.20;;;4.70;;
2406;SDS011;37709;53.480;9.688;2023-03-01T04:28:42;7.90;;;4.80;;
2406;SDS011;37709;53.480;9.688;2023-03-01T04:31:13;5.10;;;4.60;;
2406;SDS011;37709;53.480;9.688;2023-03-01T04:33:45;5.20;;;4.27;;
2406;SDS011;37709;53.480;9.688;2023-03-01T04:36:19;5.80;;;4.60;;
2406;SDS011;37709;53.480;9.688;2023-03-01T04:38:51;5.10;;;4.50;;
2406;SDS011;37709;53.480;9.688;2023-03-01T04:41:19;5.30;;;4.20;;
2406;SDS011;37709;53.480;9.688;2023-03-01T04:43:47;4.93;;;4.43;;
2406;SDS011;37709;53.480;9.688;2023-03-01T04:46:17;4.60;;;4.00;;
2406;SDS011;37709;53.480;9.688;2023-03-01T04:48:46;5.77;;;4.50;;
2406;SDS011;37709;53.480;9.688;2023-03-01T04:51:14;6.57;;;4.80;;
2406;SDS011;37709;53.480;9.688;2023-03-01T04:53:42;7.40;;;5.10;;
2406;SDS011;37709;53.480;9.688;2023-03-01T04:56:10;5.47;;;4.30;;
2406;SDS011;37709;53.480;9.688;2023-03-01T04:58:37;6.00;;;5.37;;
2406;SDS011;37709;53.480;9.688;2023-03-01T05:01:12;5.80;;;4.80;;
2406;SDS011;37709;53.480;9.688;2023-03-01T05:03:43;5.53;;;5.00;;
2406;SDS011;37709;53.480;9.688;2023-03-01T05:06:11;7.07;;;4.40;;
2406;SDS011;37709;53.480;9.688;2023-03-01T05:08:39;5.10;;;4.60;;
2406;SDS011;37709;53.480;9.688;2023-03-01T05:11:07;6.70;;;4.70;;
2406;SDS011;37709;53.480;9.688;2023-03-01T05:13:36;6.63;;;5.47;;
2406;SDS011;37709;53.480;9.688;2023-03-01T05:16:05;5.37;;;4.47;;
2406;SDS011;37709;53.480;9.688;2023-03-01T05:18:33;6.60;;;5.03;;
2406;SDS011;37709;53.480;9.688;2023-03-01T05:21:06;6.53;;;4.80;;
2406;SDS011;37709;53.480;9.688;2023-03-01T05:23:38;5.73;;;4.80;;
2406;SDS011;37709;53.480;9.688;2023-03-01T05:26:06;5.10;;;4.40;;
2406;SDS011;37709;53.480;9.688;2023-03-01T05:28:51;5.10;;;4.60;;
2406;SDS011;37709;53.480;9.688;2023-03-01T05:31:19;5.50;;;4.27;;
2406;SDS011;37709;53.480;9.688;2023-03-01T05:33:46;8.07;;;5.27;;
2406;SDS011;37709;53.480;9.688;2023-03-01T05:36:13;6.13;;;4.83;;
2406;SDS011;37709;53.480;9.688;2023-03-01T05:38:41;5.13;;;4.67;;
2406;SDS011;37709;53.480;9.688;2023-03-01T05:41:13;4.90;;;4.40;;
2406;SDS011;37709;53.480;9.688;2023-03-01T05:43:43;4.93;;;4.50;;
2406;SDS011;37709;53.480;9.688;2023-03-01T05:46:11;5.70;;;5.10;;
2406;SDS011;37709;53.480;9.688;2023-03-01T05:48:40;5.73;;;4.50;;
2406;SDS011;37709;53.480;9.688;2023-03-01T05:51:07;5.27;;;4.37;;
2406;SDS011;37709;53.480;9.688;2023-03-01T05:53:35;4.90;;;4.10;;
2406;SDS011;37709;53.480;9.688;2023-03-01T05:56:03;5.90;;;5.30;;
2406;SDS011;37709;53.480;9.688;2023-03-01T05:58:31;5.63;;;5.07;;
2406;SDS011;37709;53.480;9.688;2023-03-01T06:00:58;10.70;;;5.70;;
2406;SDS011;37709;53.480;9.688;2023-03-01T06:03:26;5.67;;;5.17;;
2406;SDS011;37709;53.480;9.688;2023-03-01T06:05:57;7.63;;;5.70;;
2406;SDS011;37709;53.480;9.688;2023-03-01T06:08:25;8.07;;;6.30;;
2406;SDS011;37709;53.480;9.688;2023-03-01T06:10:54;6.20;;;5.10;;
2406;SDS011;37709;53.480;9.688;2023-03-01T06:13:21;6.67;;;5.60;;
2406;SDS011;37709;53.480;9.688;2023-03-01T06:15:50;10.10;;;5.63;;
2406;SDS011;37709;53.480;9.688;2023-03-01T06:18:18;7.60;;;5.60;;
2406;SDS011;37709;53.480;9.688;2023-03-01T06:20:52;5.10;;;4.60;;
2406;SDS011;37709;53.480;9.688;2023-03-01T06:23:21;5.20;;;4.37;;
2406;SDS011;37709;53.480;9.688;2023-03-01T06:25:49;7.30;;;4.80;;
2406;SDS011;37709;53.480;9.688;2023-03-01T06:28:16;6.00;;;5.10;;
2406;SDS011;37709;53.480;9.688;2023-03-01T06:30:44;6.07;;;5.00;;
2406;SDS011;37709;53.480;9.688;2023-03-01T06:33:11;5.67;;;4.67;;
2406;SDS011;37709;53.480;9.688;2023-03-01T06:35:39;6.27;;;5.57;;
2406;SDS011;37709;53.480;9.688;2023-03-01T06:38:06;7.10;;;5.23;;
2406;SDS011;37709;53.480;9.688;2023-03-01T06:40:33;5.60;;;5.10;;
2406;SDS011;37709;53.480;9.688;2023-03-01T06:43:01;5.13;;;4.63;;
2406;SDS011;37709;53.480;9.688;2023-03-01T06:45:29;5.40;;;4.60;;
2406;SDS011;37709;53.480;9.688;2023-03-01T06:48:03;7.70;;;4.97;;
2406;SDS011;37709;53.480;9.688;2023-03-01T06:50:31;8.53;;;5.53;;
2406;SDS011;37709;53.480;9.688;2023-03-01T06:53:03;6.00;;;5.20;;
2406;SDS011;37709;53.480;9.688;2023-03-01T06:55:31;5.30;;;4.30;;
2406;SDS011;37709;53.480;9.688;2023-03-01T06:58:00;5.10;;;4.60;;
2406;SDS011;37709;53.480;9.688;2023-03-01T07:00:28;5.57;;;4.93;;
2406;SDS011;37709;53.480;9.688;2023-03-01T07:02:58;5.03;;;4.53;;
2406;SDS011;37709;53.480;9.688;2023-03-01T07:05:26;5.77;;;5.13;;
2406;SDS011;37709;53.480;9.688;2023-03-01T07:07:53;6.97;;;5.00;;
2406;SDS011;37709;53.480;9.688;2023-03-01T07:10:21;5.70;;;5.20;;
2406;SDS011;37709;53.480;9.688;2023-03-01T07:12:49;5.70;;;4.53;;
2406;SDS011;37709;53.480;9.688;2023-03-01T07:15:16;6.17;;;4.50;;
2406;SDS011;37709;53.480;9.688;2023-03-01T07:17:43;5.30;;;4.80;;
2406;SDS011;37709;53.480;9.688;2023-03-01T07:20:11;6.53;;;5.23;;
2406;SDS011;37709;53.480;9.688;2023-03-01T07:22:41;6.63;;;6.03;;
2406;SDS011;37709;53.480;9.688;2023-03-01T07:25:09;6.37;;;5.73;;
2406;SDS011;37709;53.480;9.688;2023-03-01T07:27:38;5.57;;;4.87;;
2406;SDS011;37709;53.480;9.688;2023-03-01T07:30:05;6.23;;;5.40;;
2406;SDS011;37709;53.480;9.688;2023-03-01T07:32:33;5.53;;;5.07;;
2406;SDS011;37709;53.480;9.688;2023-03-01T07:35:00;6.43;;;5.50;;
2406;SDS011;37709;53.480;9.688;2023-03-01T07:37:29;6.17;;;5.60;;
2406;SDS011;37709;53.480;9.688;2023-03-01T07:39:56;5.87;;;5.37;;
2406;SDS011;37709;53.480;9.688;2023-03-01T07:42:24;6.23;;;5.47;;
2406;SDS011;37709;53.480;9.688;2023-03-01T07:44:52;5.53;;;5.03;;
2406;SDS011;37709;53.480;9.688;2023-03-01T07:47:20;6.07;;;5.00;;
2406;SDS011;37709;53.480;9.688;2023-03-01T07:49:47;7.83;;;5.63;;
2406;SDS011;37709;53.480;9.688;2023-03-01T07:52:14;6.10;;;4.90;;
2406;SDS011;37709;53.480;9.688;2023-03-01T07:54:42;7.20;;;4.87;;
2406;SDS011;37709;53.480;9.688;2023-03-01T07:57:11;7.50;;;5.70;;
2406;SDS011;37709;53.480;9.688;2023-03-01T07:59:38;6.20;;;5.60;;
2406;SDS011;37709;53.480;9.688;2023-03-01T08:02:05;6.93;;;5.90;;
2406;SDS011;37709;53.480;9.688;2023-03-01T08:04:33;5.70;;;5.20;;
2406;SDS011;37709;53.480;9.688;2023-03-01T08:07:04;7.20;;;4.73;;
2406;SDS011;37709;53.480;9.688;2023-03-01T08:09:34;10.30;;;5.47;;
2406;SDS011;37709;53.480;9.688;2023-03-01T08:12:03;5.63;;;5.13;;
2406;SDS011;37709;53.480;9.688;2023-03-01T08:14:31;5.60;;;4.90;;
2406;SDS011;37709;53.480;9.688;2023-03-01T08:16:59;5.20;;;4.37;;
2406;SDS011;37709;53.480;9.688;2023-03-01T08:19:29;5.60;;;5.00;;
2406;SDS011;37709;53.480;9.688;2023-03-01T08:21:57;8.37;;;5.33;;
2406;SDS011;37709;53.480;9.688;2023-03-01T08:24:24;4.87;;;4.37;;
2406;SDS011;37709;53.480;9.688;2023-03-01T08:26:52;5.00;;;4.27;;
2406;SDS011;37709;53.480;9.688;2023-03-01T08:29:19;6.17;;;4.60;;
2406;SDS011;37709;53.480;9.688;2023-03-01T08:31:47;5.60;;;5.10;;
2406;SDS011;37709;53.480;9.688;2023-03-01T08:34:15;6.73;;;5.70;;
2406;SDS011;37709;53.480;9.688;2023-03-01T08:36:45;5.37;;;4.80;;
2406;SDS011;37709;53.480;9.688;2023-03-01T08:39:14;5.77;;;4.80;;
2406;SDS011;37709;53.480;9.688;2023-03-01T08:41:43;7.53;;;6.27;;
2406;SDS011;37709;53.480;9.688;2023-03-01T08:44:14;6.57;;;5.97;;
2406;SDS011;37709;53.480;9.688;2023-03-01T08:46:43;6.47;;;5.77;;
2406;SDS011;37709;53.480;9.688;2023-03-01T08:49:13;7.50;;;6.70;;
2406;SDS011;37709;53.480;9.688;2023-03-01T08:51:42;8.53;;;7.67;;
2406;SDS011;37709;53.480;9.688;2023-03-01T08:54:12;8.03;;;7.27;;
2406;SDS011;37709;53.480;9.688;2023-03-01T08:56:42;8.00;;;7.23;;
2406;SDS011;37709;53.480;9.688;2023-03-01T08:59:10;8.50;;;6.70;;
2406;SDS011;37709;53.480;9.688;2023-03-01T09:01:38;7.27;;;6.57;;
2406;SDS011;37709;53.480;9.688;2023-03-01T09:04:07;9.07;;;7.30;;
2406;SDS011;37709;53.480;9.688;2023-03-01T09:06:34;8.00;;;6.33;;
2406;SDS011;37709;53.480;9.688;2023-03-01T09:09:01;7.40;;;6.67;;
2406;SDS011;37709;53.480;9.688;2023-03-01T09:11:30;6.23;;;5.60;;
2406;SDS011;37709;53.480;9.688;2023-03-01T09:13:58;5.90;;;5.30;;
2406;SDS011;37709;53.480;9.688;2023-03-01T09:16:25;5.90;;;5.30;;
2406;SDS011;37709;53.480;9.688;2023-03-01T09:18:53;8.10;;;5.90;;
2406;SDS011;37709;53.480;9.688;2023-03-01T09:21:22;7.10;;;6.40;;
2406;SDS011;37709;53.480;9.688;2023-03-01T09:24:11;7.03;;;6.33;;
2406;SDS011;37709;53.480;9.688;2023-03-01T09:26:40;7.00;;;6.13;;
2406;SDS011;37709;53.480;9.688;2023-03-01T09:29:08;8.07;;;6.57;;
2406;SDS011;37709;53.480;9.688;2023-03-01T09:31:36;6.90;;;6.20;;
2406;SDS011;37709;53.480;9.688;2023-03-01T09:34:04;7.27;;;6.50;;
2406;SDS011;37709;53.480;9.688;2023-03-01T09:36:31;6.90;;;6.20;;
2406;SDS011;37709;53.480;9.688;2023-03-01T09:39:00;7.47;;;6.77;;
2406;SDS011;37709;53.480;9.688;2023-03-01T09:41:41;8.33;;;6.37;;
2406;SDS011;37709;53.480;9.688;2023-03-01T09:44:24;7.20;;;6.50;;
2406;SDS011;37709;53.480;9.688;2023-03-01T09:47:18;8.50;;;6.70;;
2406;SDS011;37709;53.480;9.688;2023-03-01T09:52:46;11.80;;;6.87;;
2406;SDS011;37709;53.480;9.688;2023-03-01T09:55:33;7.97;;;7.20;;
2406;SDS011;37709;53.480;9.688;2023-03-01T10:00:51;8.57;;;7.53;;
2406;SDS011;37709;53.480;9.688;2023-03-01T10:03:24;7.17;;;6.47;;
2406;SDS011;37709;53.480;9.688;2023-03-01T10:05:59;8.73;;;7.90;;
2406;SDS011;37709;53.480;9.688;2023-03-01T10:08:36;7.80;;;7.10;;
2406;SDS011;37709;53.480;9.688;2023-03-01T10:11:16;9.07;;;8.17;;
2406;SDS011;37709;53.480;9.688;2023-03-01T10:13:59;9.53;;;8.63;;
2406;SDS011;37709;53.480;9.688;2023-03-01T10:16:47;10.33;;;8.70;;
2406;SDS011;37709;53.480;9.688;2023-03-01T10:19:22;9.63;;;8.77;;
2406;SDS011;37709;53.480;9.688;2023-03-01T10:22:15;10.03;;;9.13;;
2406;SDS011;37709;53.480;9.688;2023-03-01T10:24:45;10.33;;;9.33;;
2406;SDS011;37709;53.480;9.688;2023-03-01T10:27:18;10.97;;;9.87;;
2406;SDS011;37709;53.480;9.688;2023-03-01T10:30:02;9.33;;;8.33;;
2406;SDS011;37709;53.480;9.688;2023-03-01T10:32:32;10.30;;;9.10;;
2406;SDS011;37709;53.480;9.688;2023-03-01T10:35:00;9.63;;;8.10;;
2406;SDS011;37709;53.480;9.688;2023-03-01T10:37:27;16.10;;;14.40;;
2406;SDS011;37709;53.480;9.688;2023-03-01T10:42:38;10.03;;;8.97;;
2406;SDS011;37709;53.480;9.688;2023-03-01T10:45:15;9.27;;;8.37;;
2406;SDS011;37709;53.480;9.688;2023-03-01T10:47:45;8.37;;;7.57;;
2406;SDS011;37709;53.480;9.688;2023-03-01T10:50:20;8.60;;;7.50;;
2406;SDS011;37709;53.480;9.688;2023-03-01T10:52:56;7.23;;;6.53;;
2406;SDS011;37709;53.480;9.688;2023-03-01T10:58:19;7.77;;;6.97;;
2406;SDS011;37709;53.480;9.688;2023-03-01T11:03:44;7.60;;;6.90;;
2406;SDS011;37709;53.480;9.688;2023-03-01T11:08:43;7.20;;;6.50;;
2406;SDS011;37709;53.480;9.688;2023-03-01T11:13:50;7.10;;;6.40;;
2406;SDS011;37709;53.480;9.688;2023-03-01T11:16:22;7.50;;;6.80;;
2406;SDS011;37709;53.480;9.688;2023-03-01T11:18:58;8.10;;;7.07;;
2406;SDS011;37709;53.480;9.688;2023-03-01T11:21:28;7.77;;;6.40;;
2406;SDS011;37709;53.480;9.688;2023-03-01T11:24:00;8.03;;;7.23;;
2406;SDS011;37709;53.480;9.688;2023-03-01T11:26:30;7.23;;;6.53;;
2406;SDS011;37709;53.480;9.688;2023-03-01T11:29:02;7.10;;;6.40;;
2406;SDS011;37709;53.480;9.688;2023-03-01T11:31:33;7.90;;;7.10;;
2406;SDS011;37709;53.480;9.688;2023-03-01T11:34:10;7.67;;;6.87;;
2406;SDS011;37709;53.480;9.688;2023-03-01T11:36:42;7.60;;;6.80;;
2406;SDS011;37709;53.480;9.688;2023-03-01T11:39:18;9.00;;;7.20;;
2406;SDS011;37709;53.480;9.688;2023-03-01T11:41:48;7.93;;;7.13;;
2406;SDS011;37709;53.480;9.688;2023-03-01T11:44:21;8.90;;;6.83;;
2406;SDS011;37709;53.480;9.688;2023-03-01T11:47:04;8.03;;;6.77;;
2406;SDS011;37709;53.480;9.688;2023-03-01T11:49:54;8.67;;;6.83;;
2406;SDS011;37709;53.480;9.688;2023-03-01T12:03:59;8.70;;;6.90;;
2406;SDS011;37709;53.480;9.688;2023-03-01T12:07:27;6.93;;;5.90;;
2406;SDS011;37709;53.480;9.688;2023-03-01T12:15:47;9.03;;;7.70;;
2406;SDS011;37709;53.480;9.688;2023-03-01T12:18:55;9.90;;;8.03;;
2406;SDS011;37709;53.480;9.688;2023-03-01T12:21:39;9.90;;;8.20;;
2406;SDS011;37709;53.480;9.688;2023-03-01T12:27:37;10.30;;;7.93;;
2406;SDS011;37709;53.480;9.688;2023-03-01T12:33:05;8.90;;;7.60;;
2406;SDS011;37709;53.480;9.688;2023-03-01T12:36:03;11.63;;;8.80;;
2406;SDS011;37709;53.480;9.688;2023-03-01T12:41:47;10.97;;;9.20;;
2406;SDS011;37709;53.480;9.688;2023-03-01T12:47:19;10.17;;;8.37;;
2406;SDS011;37709;53.480;9.688;2023-03-01T12:49:57;10.80;;;9.00;;
2406;SDS011;37709;53.480;9.688;2023-03-01T12:52:35;10.60;;;8.53;;
2406;SDS011;37709;53.480;9.688;2023-03-01T12:55:25;9.53;;;8.43;;
2406;SDS011;37709;53.480;9.688;2023-03-01T12:58:07;9.97;;;8.87;;
2406;SDS011;37709;53.480;9.688;2023-03-01T13:00:57;10.73;;;8.03;;
2406;SDS011;37709;53.480;9.688;2023-03-01T13:06:15;12.10;;;10.60;;
2406;SDS011;37709;53.480;9.688;2023-03-01T13:09:06;10.70;;;9.20;;
2406;SDS011;37709;53.480;9.688;2023-03-01T13:11:41;12.33;;;10.07;;
2406;SDS011;37709;53.480;9.688;2023-03-01T13:16:52;12.03;;;10.20;;
2406;SDS011;37709;53.480;9.688;2023-03-01T13:19:22;12.43;;;11.00;;
2406;SDS011;37709;53.480;9.688;2023-03-01T13:21:55;12.87;;;10.37;;
2406;SDS011;37709;53.480;9.688;2023-03-01T13:24:33;13.80;;;11.83;;
2406;SDS011;37709;53.480;9.688;2023-03-01T13:27:10;12.97;;;11.10;;
2406;SDS011;37709;53.480;9.688;2023-03-01T13:32:24;13.37;;;11.50;;
2406;SDS011;37709;53.480;9.688;2023-03-01T13:37:43;14.20;;;9.83;;
2406;SDS011;37709;53.480;9.688;2023-03-01T13:42:53;11.27;;;9.37;;
2406;SDS011;37709;53.480;9.688;2023-03-01T13:45:33;12.20;;;10.13;;
2406;SDS011;37709;53.480;9.688;2023-03-01T13:48:16;12.83;;;10.67;;
2406;SDS011;37709;53.480;9.688;2023-03-01T13:50:59;13.47;;;10.53;;
2406;SDS011;37709;53.480;9.688;2023-03-01T13:53:33;12.90;;;10.50;;
2406;SDS011;37709;53.480;9.688;2023-03-01T13:56:08;11.07;;;9.87;;
2406;SDS011;37709;53.480;9.688;2023-03-01T14:01:32;11.53;;;10.07;;
2406;SDS011;37709;53.480;9.688;2023-03-01T14:04:02;13.60;;;10.27;;
2406;SDS011;37709;53.480;9.688;2023-03-01T14:06:44;12.87;;;10.50;;
2406;SDS011;37709;53.480;9.688;2023-03-01T14:09:21;12.33;;;11.13;;
2406;SDS011;37709;53.480;9.688;2023-03-01T14:14:47;13.77;;;12.00;;
2406;SDS011;37709;53.480;9.688;2023-03-01T14:17:38;12.60;;;10.97;;
2406;SDS011;37709;53.480;9.688;2023-03-01T14:20:22;13.53;;;12.10;;
2406;SDS011;37709;53.480;9.688;2023-03-01T14:22:55;13.73;;;12.33;;
2406;SDS011;37709;53.480;9.688;2023-03-01T14:27:59;12.60;;;11.10;;
2406;SDS011;37709;53.480;9.688;2023-03-01T14:30:38;13.73;;;10.87;;
2406;SDS011;37709;53.480;9.688;2023-03-01T14:35:55;12.57;;;11.23;;
2406;SDS011;37709;53.480;9.688;2023-03-01T14:38:31;11.90;;;9.73;;
2406;SDS011;37709;53.480;9.688;2023-03-01T14:41:02;10.30;;;8.93;;
2406;SDS011;37709;53.480;9.688;2023-03-01T14:43:41;10.77;;;8.60;;
2406;SDS011;37709;53.480;9.688;2023-03-01T14:46:34;9.83;;;8.83;;
2406;SDS011;37709;53.480;9.688;2023-03-01T14:49:04;9.60;;;7.50;;
2406;SDS011;37709;53.480;9.688;2023-03-01T14:51:46;8.40;;;7.50;;
2406;SDS011;37709;53.480;9.688;2023-03-01T14:54:26;9.60;;;8.60;;
2406;SDS011;37709;53.480;9.688;2023-03-01T14:56:58;11.10;;;8.47;;
2406;SDS011;37709;53.480;9.688;2023-03-01T14:59:27;9.23;;;8.30;;
2406;SDS011;37709;53.480;9.688;2023-03-01T15:01:56;10.60;;;8.67;;
2406;SDS011;37709;53.480;9.688;2023-03-01T15:04:24;9.40;;;8.30;;
2406;SDS011;37709;53.480;9.688;2023-03-01T15:06:54;10.10;;;8.40;;
2406;SDS011;37709;53.480;9.688;2023-03-01T15:09:32;8.80;;;7.90;;
2406;SDS011;37709;53.480;9.688;2023-03-01T15:15:08;9.03;;;7.60;;
2406;SDS011;37709;53.480;9.688;2023-03-01T15:17:52;9.60;;;7.87;;
2406;SDS011;37709;53.480;9.688;2023-03-01T15:20:22;9.90;;;7.97;;
2406;SDS011;37709;53.480;9.688;2023-03-01T15:22:53;8.13;;;7.33;;
2406;SDS011;37709;53.480;9.688;2023-03-01T15:25:23;10.93;;;8.43;;
2406;SDS011;37709;53.480;9.688;2023-03-01T15:27:53;8.50;;;7.10;;
2406;SDS011;37709;53.480;9.688;2023-03-01T15:30:25;10.67;;;8.43;;
2406;SDS011;37709;53.480;9.688;2023-03-01T15:35:50;10.60;;;8.20;;
2406;SDS011;37709;53.480;9.688;2023-03-01T15:38:31;10.37;;;8.20;;
2406;SDS011;37709;53.480;9.688;2023-03-01T15:41:26;9.20;;;8.10;;
2406;SDS011;37709;53.480;9.688;2023-03-01T15:44:13;10.67;;;8.17;;
2406;SDS011;37709;53.480;9.688;2023-03-01T15:46:46;8.73;;;7.53;;
2406;SDS011;37709;53.480;9.688;2023-03-01T15:49:25;9.57;;;7.80;;
2406;SDS011;37709;53.480;9.688;2023-03-01T15:51:58;10.53;;;7.00;;
2406;SDS011;37709;53.480;9.688;2023-03-01T15:54:26;8.33;;;7.53;;
2406;SDS011;37709;53.480;9.688;2023-03-01T15:56:54;9.17;;;8.20;;
2406;SDS011;37709;53.480;9.688;2023-03-01T15:59:22;11.33;;;8.20;;
2406;SDS011;37709;53.480;9.688;2023-03-01T16:01:49;10.70;;;9.30;;
2406;SDS011;37709;53.480;9.688;2023-03-01T16:04:17;11.47;;;9.33;;
2406;SDS011;37709;53.480;9.688;2023-03-01T16:06:50;11.17;;;8.60;;
2406;SDS011;37709;53.480;9.688;2023-03-01T16:09:21;11.07;;;9.90;;
2406;SDS011;37709;53.480;9.688;2023-03-01T16:11:50;12.83;;;9.07;;
2406;SDS011;37709;53.480;9.688;2023-03-01T16:14:19;13.27;;;8.93;;
2406;SDS011;37709;53.480;9.688;2023-03-01T16:16:47;9.97;;;8.43;;
2406;SDS011;37709;53.480;9.688;2023-03-01T16:19:14;11.03;;;8.47;;
2406;SDS011;37709;53.480;9.688;2023-03-01T16:21:43;12.43;;;8.90;;
2406;SDS011;37709;53.480;9.688;2023-03-01T16:24:13;13.77;;;9.30;;
2406;SDS011;37709;53.480;9.688;2023-03-01T16:26:41;14.60;;;10.90;;
2406;SDS011;37709;53.480;9.688;2023-03-01T16:29:09;12.93;;;9.30;;
2406;SDS011;37709;53.480;9.688;2023-03-01T16:31:36;12.60;;;9.80;;
2406;SDS011;37709;53.480;9.688;2023-03-01T16:34:04;14.60;;;9.80;;
2406;SDS011;37709;53.480;9.688;2023-03-01T16:36:31;11.77;;;8.90;;
2406;SDS011;37709;53.480;9.688;2023-03-01T16:38:59;13.00;;;9.10;;
2406;SDS011;37709;53.480;9.688;2023-03-01T16:41:27;14.77;;;10.43;;
2406;SDS011;37709;53.480;9.688;2023-03-01T16:43:55;16.53;;;11.40;;
2406;SDS011;37709;53.480;9.688;2023-03-01T16:46:24;17.37;;;12.30;;
2406;SDS011;37709;53.480;9.688;2023-03-01T16:48:53;15.60;;;11.73;;
2406;SDS011;37709;53.480;9.688;2023-03-01T16:51:22;15.17;;;12.03;;
2406;SDS011;37709;53.480;9.688;2023-03-01T16:53:50;18.27;;;12.30;;
2406;SDS011;37709;53.480;9.688;2023-03-01T16:56:19;19.40;;;13.50;;